sensor_id;sensor_type;location;lat;lon;timestamp;temperature;humidity
19974;DHT22;10148;47.694;9.442;2023-03-26T00:01:00;8.20;99.90
19974;DHT22;10148;47.694;9.442;2023-03-26T00:03:30;8.10;99.90
19974;DHT22;10148;47.694;9.442;2023-03-26T00:06:15;8.10;99.90
19974;DHT22;10148;47.694;9.442;2023-03-26T00:08:43;8.10;99.90
19974;DHT22;10148;47.694;9.442;2023-03-26T00:11:11;8.10;99.90
19974;DHT22;10148;47.694;9.442;2023-03-26T00:13:37;8.10;99.90
19974;DHT22;10148;47.694;9.442;2023-03-26T00:16:03;8.10;99.90
19974;DHT22;10148;47.694;9.442;2023-03-26T00:18:29;8.00;99.90
19974;DHT22;10148;47.694;9.442;2023-03-26T00:21:03;8.00;99.90
19974;DHT22;10148;47.694;9.442;2023-03-26T00:23:31;8.00;99.90
19974;DHT22;10148;47.694;9.442;2023-03-26T00:25:58;8.00;99.90
19974;DHT22;10148;47.694;9.442;2023-03-26T00:28:25;8.00;99.90
19974;DHT22;10148;47.694;9.442;2023-03-26T00:31:00;8.10;99.90
19974;DHT22;10148;47.694;9.442;2023-03-26T00:33:26;8.10;99.90
19974;DHT22;10148;47.694;9.442;2023-03-26T00:35:53;8.10;99.90
19974;DHT22;10148;47.694;9.442;2023-03-26T00:38:20;8.10;99.90
19974;DHT22;10148;47.694;9.442;2023-03-26T00:40:47;8.10;99.90
19974;DHT22;10148;47.694;9.442;2023-03-26T00:43:16;8.10;99.90
19974;DHT22;10148;47.694;9.442;2023-03-26T00:45:49;8.10;99.90
19974;DHT22;10148;47.694;9.442;2023-03-26T00:48:16;8.20;99.90
19974;DHT22;10148;47.694;9.442;2023-03-26T00:50:44;8.10;99.90
19974;DHT22;10148;47.694;9.442;2023-03-26T00:53:10;8.10;99.90
19974;DHT22;10148;47.694;9.442;2023-03-26T00:55:36;8.10;99.90
19974;DHT22;10148;47.694;9.442;2023-03-26T00:58:02;8.00;99.90
19974;DHT22;10148;47.694;9.442;2023-03-26T01:00:31;8.00;99.90
19974;DHT22;10148;47.694;9.442;2023-03-26T01:03:00;8.00;99.90
19974;DHT22;10148;47.694;9.442;2023-03-26T01:08:12;8.00;99.90
19974;DHT22;10148;47.694;9.442;2023-03-26T01:10:42;8.00;99.90
19974;DHT22;10148;47.694;9.442;2023-03-26T01:13:08;8.00;99.90
19974;DHT22;10148;47.694;9.442;2023-03-26T01:15:35;8.00;99.90
19974;DHT22;10148;47.694;9.442;2023-03-26T01:18:04;8.00;99.90
19974;DHT22;10148;47.694;9.442;2023-03-26T01:20:33;8.00;99.90
19974;DHT22;10148;47.694;9.442;2023-03-26T01:23:05;8.10;99.90
19974;DHT22;10148;47.694;9.442;2023-03-26T01:25:37;8.10;99.90
19974;DHT22;10148;47.694;9.442;2023-03-26T01:28:06;8.10;99.90
19974;DHT22;10148;47.694;9.442;2023-03-26T01:30:37;8.10;99.90
19974;DHT22;10148;47.694;9.442;2023-03-26T01:35:48;8.30;99.90
19974;DHT22;10148;47.694;9.442;2023-03-26T01:38:48;8.30;99.90
19974;DHT22;10148;47.694;9.442;2023-03-26T01:41:50;8.40;99.90
19974;DHT22;10148;47.694;9.442;2023-03-26T01:44:53;8.30;99.90
19974;DHT22;10148;47.694;9.442;2023-03-26T01:47:20;8.30;99.90
19974;DHT22;10148;47.694;9.442;2023-03-26T01:49:46;8.30;99.90
19974;DHT22;10148;47.694;9.442;2023-03-26T01:52:16;8.20;99.90
19974;DHT22;10148;47.694;9.442;2023-03-26T01:54:42;8.20;99.90
19974;DHT22;10148;47.694;9.442;2023-03-26T02:02:50;8.30;99.90
19974;DHT22;10148;47.694;9.442;2023-03-26T02:05:40;8.20;99.90
19974;DHT22;10148;47.694;9.442;2023-03-26T02:08:15;8.20;99.90
19974;DHT22;10148;47.694;9.442;2023-03-26T02:10:48;8.20;99.90
19974;DHT22;10148;47.694;9.442;2023-03-26T02:13:14;8.10;99.90
19974;DHT22;10148;47.694;9.442;2023-03-26T02:15:40;8.10;99.90
19974;DHT22;10148;47.694;9.442;2023-03-26T02:18:18;8.10;99.90
19974;DHT22;10148;47.694;9.442;2023-03-26T02:20:49;8.10;99.90
19974;DHT22;10148;47.694;9.442;2023-03-26T02:23:18;8.10;99.90
19974;DHT22;10148;47.694;9.442;2023-03-26T02:25:43;8.10;99.90
19974;DHT22;10148;47.694;9.442;2023-03-26T02:28:09;8.10;99.90
19974;DHT22;10148;47.694;9.442;2023-03-26T02:30:35;8.00;99.90
19974;DHT22;10148;47.694;9.442;2023-03-26T02:33:00;8.00;99.90
19974;DHT22;10148;47.694;9.442;2023-03-26T02:35:26;7.90;99.90
19974;DHT22;10148;47.694;9.442;2023-03-26T02:37:51;7.80;99.90
19974;DHT22;10148;47.694;9.442;2023-03-26T02:40:17;7.80;99.90
19974;DHT22;10148;47.694;9.442;2023-03-26T02:42:45;7.80;99.90
19974;DHT22;10148;47.694;9.442;2023-03-26T02:45:11;7.70;99.90
19974;DHT22;10148;47.694;9.442;2023-03-26T02:47:37;7.80;99.90
19974;DHT22;10148;47.694;9.442;2023-03-26T02:50:03;7.80;99.90
19974;DHT22;10148;47.694;9.442;2023-03-26T02:52:28;7.70;99.90
19974;DHT22;10148;47.694;9.442;2023-03-26T02:54:54;7.70;99.90
19974;DHT22;10148;47.694;9.442;2023-03-26T02:57:21;7.70;99.90
19974;DHT22;10148;47.694;9.442;2023-03-26T02:59:46;7.70;99.90
19974;DHT22;10148;47.694;9.442;2023-03-26T03:02:14;7.70;99.90
19974;DHT22;10148;47.694;9.442;2023-03-26T03:04:40;7.60;99.90
19974;DHT22;10148;47.694;9.442;2023-03-26T03:07:06;7.60;99.90
19974;DHT22;10148;47.694;9.442;2023-03-26T03:09:32;7.60;99.90
19974;DHT22;10148;47.694;9.442;2023-03-26T03:11:57;7.60;99.90
19974;DHT22;10148;47.694;9.442;2023-03-26T03:14:23;7.60;99.90
19974;DHT22;10148;47.694;9.442;2023-03-26T03:16:48;7.60;99.90
19974;DHT22;10148;47.694;9.442;2023-03-26T03:19:14;7.70;99.90
19974;DHT22;10148;47.694;9.442;2023-03-26T03:21:40;7.70;99.90
19974;DHT22;10148;47.694;9.442;2023-03-26T03:24:06;7.80;99.90
19974;DHT22;10148;47.694;9.442;2023-03-26T03:26:32;7.90;99.90
19974;DHT22;10148;47.694;9.442;2023-03-26T03:29:01;8.00;99.90
19974;DHT22;10148;47.694;9.442;2023-03-26T03:31:29;8.00;99.90
19974;DHT22;10148;47.694;9.442;2023-03-26T03:33:56;8.00;99.90
19974;DHT22;10148;47.694;9.442;2023-03-26T03:36:24;8.00;99.90
19974;DHT22;10148;47.694;9.442;2023-03-26T03:38:54;8.00;99.90
19974;DHT22;10148;47.694;9.442;2023-03-26T03:41:28;8.00;99.90
19974;DHT22;10148;47.694;9.442;2023-03-26T03:43:57;8.00;99.90
19974;DHT22;10148;47.694;9.442;2023-03-26T03:46:28;7.90;99.90
19974;DHT22;10148;47.694;9.442;2023-03-26T03:48:56;7.80;99.90
19974;DHT22;10148;47.694;9.442;2023-03-26T03:51:31;7.80;99.90
19974;DHT22;10148;47.694;9.442;2023-03-26T03:54:02;7.70;99.90
19974;DHT22;10148;47.694;9.442;2023-03-26T03:56:33;7.70;99.90
19974;DHT22;10148;47.694;9.442;2023-03-26T03:59:00;7.70;99.90
19974;DHT22;10148;47.694;9.442;2023-03-26T04:01:28;7.70;99.90
19974;DHT22;10148;47.694;9.442;2023-03-26T04:03:57;7.70;99.90
19974;DHT22;10148;47.694;9.442;2023-03-26T04:06:33;7.70;99.90
19974;DHT22;10148;47.694;9.442;2023-03-26T04:09:03;7.70;99.90
19974;DHT22;10148;47.694;9.442;2023-03-26T04:11:39;7.70;99.90
19974;DHT22;10148;47.694;9.442;2023-03-26T04:14:12;7.60;99.90
19974;DHT22;10148;47.694;9.442;2023-03-26T04:17:01;7.60;99.90
19974;DHT22;10148;47.694;9.442;2023-03-26T04:19:32;7.50;99.90
19974;DHT22;10148;47.694;9.442;2023-03-26T04:21:58;7.50;99.90
19974;DHT22;10148;47.694;9.442;2023-03-26T04:24:29;7.40;99.90
19974;DHT22;10148;47.694;9.442;2023-03-26T04:27:00;7.40;99.90
19974;DHT22;10148;47.694;9.442;2023-03-26T04:29:41;7.50;99.90
19974;DHT22;10148;47.694;9.442;2023-03-26T04:32:15;7.40;99.90
19974;DHT22;10148;47.694;9.442;2023-03-26T04:34:44;7.40;99.90
19974;DHT22;10148;47.694;9.442;2023-03-26T04:39:54;7.30;99.90
19974;DHT22;10148;47.694;9.442;2023-03-26T04:42:25;7.20;99.90
19974;DHT22;10148;47.694;9.442;2023-03-26T04:44:51;7.20;99.90
19974;DHT22;10148;47.694;9.442;2023-03-26T04:47:17;7.10;99.90
19974;DHT22;10148;47.694;9.442;2023-03-26T04:49:47;7.10;99.90
19974;DHT22;10148;47.694;9.442;2023-03-26T04:52:13;7.00;99.90
19974;DHT22;10148;47.694;9.442;2023-03-26T04:54:47;7.00;99.90
19974;DHT22;10148;47.694;9.442;2023-03-26T04:57:34;7.00;99.90
19974;DHT22;10148;47.694;9.442;2023-03-26T05:00:03;6.90;99.90
19974;DHT22;10148;47.694;9.442;2023-03-26T05:02:43;6.90;99.90
19974;DHT22;10148;47.694;9.442;2023-03-26T05:05:11;6.90;99.90
19974;DHT22;10148;47.694;9.442;2023-03-26T05:07:37;6.90;99.90
19974;DHT22;10148;47.694;9.442;2023-03-26T05:10:06;6.90;99.90
19974;DHT22;10148;47.694;9.442;2023-03-26T05:26:13;6.70;99.90
19974;DHT22;10148;47.694;9.442;2023-03-26T05:28:39;6.60;99.90
19974;DHT22;10148;47.694;9.442;2023-03-26T05:31:04;6.60;99.90
19974;DHT22;10148;47.694;9.442;2023-03-26T05:33:30;6.60;99.90
19974;DHT22;10148;47.694;9.442;2023-03-26T05:36:01;6.60;99.90
19974;DHT22;10148;47.694;9.442;2023-03-26T05:38:30;6.60;99.90
19974;DHT22;10148;47.694;9.442;2023-03-26T05:41:00;6.60;99.90
19974;DHT22;10148;47.694;9.442;2023-03-26T05:43:26;6.50;99.90
19974;DHT22;10148;47.694;9.442;2023-03-26T05:45:52;6.50;99.90
19974;DHT22;10148;47.694;9.442;2023-03-26T05:48:18;6.50;99.90
19974;DHT22;10148;47.694;9.442;2023-03-26T05:50:47;6.50;99.90
19974;DHT22;10148;47.694;9.442;2023-03-26T05:53:12;6.50;99.90
19974;DHT22;10148;47.694;9.442;2023-03-26T05:55:38;6.50;99.90
19974;DHT22;10148;47.694;9.442;2023-03-26T05:58:04;6.50;99.90
19974;DHT22;10148;47.694;9.442;2023-03-26T06:00:30;6.50;99.90
19974;DHT22;10148;47.694;9.442;2023-03-26T06:02:57;6.50;99.90
19974;DHT22;10148;47.694;9.442;2023-03-26T06:05:23;6.50;99.90
19974;DHT22;10148;47.694;9.442;2023-03-26T06:07:50;6.50;99.90
19974;DHT22;10148;47.694;9.442;2023-03-26T06:10:16;6.50;99.90
19974;DHT22;10148;47.694;9.442;2023-03-26T06:12:42;6.50;99.90
19974;DHT22;10148;47.694;9.442;2023-03-26T06:15:08;6.50;99.90
19974;DHT22;10148;47.694;9.442;2023-03-26T06:17:34;6.50;99.90
19974;DHT22;10148;47.694;9.442;2023-03-26T06:20:00;6.60;99.90
19974;DHT22;10148;47.694;9.442;2023-03-26T06:22:25;6.60;99.90
19974;DHT22;10148;47.694;9.442;2023-03-26T06:24:51;6.60;99.90
19974;DHT22;10148;47.694;9.442;2023-03-26T06:27:17;6.60;99.90
19974;DHT22;10148;47.694;9.442;2023-03-26T06:29:42;6.60;99.90
19974;DHT22;10148;47.694;9.442;2023-03-26T06:32:08;6.60;99.90
19974;DHT22;10148;47.694;9.442;2023-03-26T06:34:33;6.60;99.90
19974;DHT22;10148;47.694;9.442;2023-03-26T06:36:59;6.70;99.90
19974;DHT22;10148;47.694;9.442;2023-03-26T06:39:25;6.70;99.90
19974;DHT22;10148;47.694;9.442;2023-03-26T06:41:51;6.70;99.90
19974;DHT22;10148;47.694;9.442;2023-03-26T06:44:16;6.70;99.90
19974;DHT22;10148;47.694;9.442;2023-03-26T06:46:42;6.70;99.90
19974;DHT22;10148;47.694;9.442;2023-03-26T06:49:08;6.70;99.90
19974;DHT22;10148;47.694;9.442;2023-03-26T06:51:33;6.80;99.90
19974;DHT22;10148;47.694;9.442;2023-03-26T06:53:59;6.80;99.90
19974;DHT22;10148;47.694;9.442;2023-03-26T06:56:24;6.80;99.90
19974;DHT22;10148;47.694;9.442;2023-03-26T06:58:50;6.80;99.90
19974;DHT22;10148;47.694;9.442;2023-03-26T07:01:15;6.90;99.90
19974;DHT22;10148;47.694;9.442;2023-03-26T07:03:41;6.90;99.90
19974;DHT22;10148;47.694;9.442;2023-03-26T07:06:07;6.90;99.90
19974;DHT22;10148;47.694;9.442;2023-03-26T07:08:32;6.90;99.90
19974;DHT22;10148;47.694;9.442;2023-03-26T07:10:58;6.90;99.90
19974;DHT22;10148;47.694;9.442;2023-03-26T07:13:23;6.90;99.90
19974;DHT22;10148;47.694;9.442;2023-03-26T07:15:49;6.90;99.90
19974;DHT22;10148;47.694;9.442;2023-03-26T07:18:15;6.90;99.90
19974;DHT22;10148;47.694;9.442;2023-03-26T07:20:42;6.90;99.90
19974;DHT22;10148;47.694;9.442;2023-03-26T07:23:09;6.90;99.90
19974;DHT22;10148;47.694;9.442;2023-03-26T07:25:35;6.90;99.90
19974;DHT22;10148;47.694;9.442;2023-03-26T07:28:22;6.90;99.90
19974;DHT22;10148;47.694;9.442;2023-03-26T07:30:59;6.90;99.90
19974;DHT22;10148;47.694;9.442;2023-03-26T07:33:44;6.90;99.90
19974;DHT22;10148;47.694;9.442;2023-03-26T07:36:33;6.90;99.90
19974;DHT22;10148;47.694;9.442;2023-03-26T07:47:29;6.90;99.90
19974;DHT22;10148;47.694;9.442;2023-03-26T07:49:57;6.80;99.90
19974;DHT22;10148;47.694;9.442;2023-03-26T07:52:23;6.80;99.90
19974;DHT22;10148;47.694;9.442;2023-03-26T07:54:49;6.80;99.90
19974;DHT22;10148;47.694;9.442;2023-03-26T08:02:53;6.80;99.90
19974;DHT22;10148;47.694;9.442;2023-03-26T08:08:37;6.80;99.90
19974;DHT22;10148;47.694;9.442;2023-03-26T08:16:23;6.80;99.90
19974;DHT22;10148;47.694;9.442;2023-03-26T08:21:44;6.70;99.90
19974;DHT22;10148;47.694;9.442;2023-03-26T08:27:13;6.70;99.90
19974;DHT22;10148;47.694;9.442;2023-03-26T08:29:53;6.80;99.90
19974;DHT22;10148;47.694;9.442;2023-03-26T08:32:22;6.90;99.90
19974;DHT22;10148;47.694;9.442;2023-03-26T08:34:48;6.80;99.90
19974;DHT22;10148;47.694;9.442;2023-03-26T08:37:14;6.90;99.90
19974;DHT22;10148;47.694;9.442;2023-03-26T08:39:39;6.90;99.90
19974;DHT22;10148;47.694;9.442;2023-03-26T08:45:00;7.00;99.90
19974;DHT22;10148;47.694;9.442;2023-03-26T08:56:28;7.00;99.90
19974;DHT22;10148;47.694;9.442;2023-03-26T09:10:28;7.10;99.90
19974;DHT22;10148;47.694;9.442;2023-03-26T09:21:41;7.20;99.90
19974;DHT22;10148;47.694;9.442;2023-03-26T09:24:28;7.20;99.90
19974;DHT22;10148;47.694;9.442;2023-03-26T09:27:14;7.20;99.90
19974;DHT22;10148;47.694;9.442;2023-03-26T09:37:58;7.10;99.90
19974;DHT22;10148;47.694;9.442;2023-03-26T09:40:40;7.10;99.90
19974;DHT22;10148;47.694;9.442;2023-03-26T09:45:54;7.20;99.90
19974;DHT22;10148;47.694;9.442;2023-03-26T09:48:50;7.30;99.90
19974;DHT22;10148;47.694;9.442;2023-03-26T09:57:03;7.60;99.90
19974;DHT22;10148;47.694;9.442;2023-03-26T10:13:37;8.30;99.90
19974;DHT22;10148;47.694;9.442;2023-03-26T10:16:40;8.20;99.90
19974;DHT22;10148;47.694;9.442;2023-03-26T10:22:23;8.00;99.90
19974;DHT22;10148;47.694;9.442;2023-03-26T10:33:37;8.10;99.90
19974;DHT22;10148;47.694;9.442;2023-03-26T10:36:35;8.20;99.90
19974;DHT22;10148;47.694;9.442;2023-03-26T10:39:27;8.30;99.90
19974;DHT22;10148;47.694;9.442;2023-03-26T10:45:23;8.40;99.90
19974;DHT22;10148;47.694;9.442;2023-03-26T10:48:11;8.40;99.90
19974;DHT22;10148;47.694;9.442;2023-03-26T10:51:28;8.50;99.90
19974;DHT22;10148;47.694;9.442;2023-03-26T10:53:47;8.60;99.90
19974;DHT22;10148;47.694;9.442;2023-03-26T10:56:33;8.80;99.90
19974;DHT22;10148;47.694;9.442;2023-03-26T10:59:05;9.00;99.90
19974;DHT22;10148;47.694;9.442;2023-03-26T11:01:34;9.10;99.90
19974;DHT22;10148;47.694;9.442;2023-03-26T11:04:30;9.00;99.90
19974;DHT22;10148;47.694;9.442;2023-03-26T11:10:23;9.00;99.90
19974;DHT22;10148;47.694;9.442;2023-03-26T11:15:59;9.10;99.90
19974;DHT22;10148;47.694;9.442;2023-03-26T11:21:06;9.20;99.90
19974;DHT22;10148;47.694;9.442;2023-03-26T11:23:35;9.30;99.90
19974;DHT22;10148;47.694;9.442;2023-03-26T11:26:16;9.30;99.90
19974;DHT22;10148;47.694;9.442;2023-03-26T11:29:12;9.40;99.90
19974;DHT22;10148;47.694;9.442;2023-03-26T11:32:06;9.40;99.90
19974;DHT22;10148;47.694;9.442;2023-03-26T11:35:04;9.40;99.90
19974;DHT22;10148;47.694;9.442;2023-03-26T11:37:41;9.40;99.90
19974;DHT22;10148;47.694;9.442;2023-03-26T11:40:17;9.40;99.90
19974;DHT22;10148;47.694;9.442;2023-03-26T11:42:46;9.50;99.90
19974;DHT22;10148;47.694;9.442;2023-03-26T11:45:17;9.60;99.90
19974;DHT22;10148;47.694;9.442;2023-03-26T11:47:47;9.70;99.90
19974;DHT22;10148;47.694;9.442;2023-03-26T11:50:22;9.70;99.90
19974;DHT22;10148;47.694;9.442;2023-03-26T11:52:49;9.70;99.90
19974;DHT22;10148;47.694;9.442;2023-03-26T11:55:15;9.80;99.90
19974;DHT22;10148;47.694;9.442;2023-03-26T11:57:47;9.90;99.90
19974;DHT22;10148;47.694;9.442;2023-03-26T12:00:17;10.00;99.90
19974;DHT22;10148;47.694;9.442;2023-03-26T12:02:46;9.90;99.90
19974;DHT22;10148;47.694;9.442;2023-03-26T12:05:21;10.10;99.90
19974;DHT22;10148;47.694;9.442;2023-03-26T12:07:55;10.10;99.90
19974;DHT22;10148;47.694;9.442;2023-03-26T12:10:37;10.10;99.90
19974;DHT22;10148;47.694;9.442;2023-03-26T12:13:28;10.20;99.90
19974;DHT22;10148;47.694;9.442;2023-03-26T12:16:03;10.30;99.90
19974;DHT22;10148;47.694;9.442;2023-03-26T12:18:30;10.40;99.90
19974;DHT22;10148;47.694;9.442;2023-03-26T12:21:09;10.50;99.90
19974;DHT22;10148;47.694;9.442;2023-03-26T12:23:55;10.50;99.90
19974;DHT22;10148;47.694;9.442;2023-03-26T12:29:14;10.70;99.90
19974;DHT22;10148;47.694;9.442;2023-03-26T12:34:18;10.90;99.90
19974;DHT22;10148;47.694;9.442;2023-03-26T12:37:05;10.90;99.90
19974;DHT22;10148;47.694;9.442;2023-03-26T12:39:41;11.00;99.90
19974;DHT22;10148;47.694;9.442;2023-03-26T12:42:38;11.10;99.90
19974;DHT22;10148;47.694;9.442;2023-03-26T12:45:05;11.10;99.90
19974;DHT22;10148;47.694;9.442;2023-03-26T12:47:32;11.10;99.90
19974;DHT22;10148;47.694;9.442;2023-03-26T12:49:58;11.10;99.90
19974;DHT22;10148;47.694;9.442;2023-03-26T12:52:46;11.30;99.90
19974;DHT22;10148;47.694;9.442;2023-03-26T12:55:46;11.60;99.90
19974;DHT22;10148;47.694;9.442;2023-03-26T12:58:34;11.90;99.90
19974;DHT22;10148;47.694;9.442;2023-03-26T13:06:46;12.30;99.90
19974;DHT22;10148;47.694;9.442;2023-03-26T13:14:55;12.20;99.90
19974;DHT22;10148;47.694;9.442;2023-03-26T13:22:54;11.90;99.90
19974;DHT22;10148;47.694;9.442;2023-03-26T13:25:37;11.80;99.90
19974;DHT22;10148;47.694;9.442;2023-03-26T13:38:57;11.50;99.90
19974;DHT22;10148;47.694;9.442;2023-03-26T13:44:52;11.70;99.90
19974;DHT22;10148;47.694;9.442;2023-03-26T13:47:26;12.00;99.90
19974;DHT22;10148;47.694;9.442;2023-03-26T13:50:00;12.30;99.90
19974;DHT22;10148;47.694;9.442;2023-03-26T13:55:34;11.70;99.90
19974;DHT22;10148;47.694;9.442;2023-03-26T13:58:21;12.00;99.90
19974;DHT22;10148;47.694;9.442;2023-03-26T14:01:18;11.80;99.90
19974;DHT22;10148;47.694;9.442;2023-03-26T14:12:13;11.80;99.90
19974;DHT22;10148;47.694;9.442;2023-03-26T14:15:16;11.70;99.90
19974;DHT22;10148;47.694;9.442;2023-03-26T14:18:00;11.90;99.90
19974;DHT22;10148;47.694;9.442;2023-03-26T14:26:47;12.00;99.90
19974;DHT22;10148;47.694;9.442;2023-03-26T14:29:28;11.80;99.90
19974;DHT22;10148;47.694;9.442;2023-03-26T14:32:08;11.70;99.90
19974;DHT22;10148;47.694;9.442;2023-03-26T14:42:36;11.00;99.90
19974;DHT22;10148;47.694;9.442;2023-03-26T14:52:56;10.30;99.90
19974;DHT22;10148;47.694;9.442;2023-03-26T14:55:43;10.10;99.90
19974;DHT22;10148;47.694;9.442;2023-03-26T15:01:11;9.70;99.90
19974;DHT22;10148;47.694;9.442;2023-03-26T15:09:48;9.40;99.90
19974;DHT22;10148;47.694;9.442;2023-03-26T15:15:48;9.30;99.90
19974;DHT22;10148;47.694;9.442;2023-03-26T15:27:06;7.50;99.90
19974;DHT22;10148;47.694;9.442;2023-03-26T15:32:37;7.50;99.90
19974;DHT22;10148;47.694;9.442;2023-03-26T15:38:22;6.80;99.90
19974;DHT22;10148;47.694;9.442;2023-03-26T15:41:09;6.20;99.90
19974;DHT22;10148;47.694;9.442;2023-03-26T15:49:37;5.70;99.90
19974;DHT22;10148;47.694;9.442;2023-03-26T15:55:19;5.50;99.90
19974;DHT22;10148;47.694;9.442;2023-03-26T15:57:57;5.50;99.90
19974;DHT22;10148;47.694;9.442;2023-03-26T16:00:28;5.60;99.90
19974;DHT22;10148;47.694;9.442;2023-03-26T16:03:38;5.70;99.90
19974;DHT22;10148;47.694;9.442;2023-03-26T16:06:38;5.80;99.90
19974;DHT22;10148;47.694;9.442;2023-03-26T16:09:40;5.80;99.90
19974;DHT22;10148;47.694;9.442;2023-03-26T16:14:44;5.90;99.90
19974;DHT22;10148;47.694;9.442;2023-03-26T16:17:22;5.90;99.90
19974;DHT22;10148;47.694;9.442;2023-03-26T16:22:40;5.90;99.90
19974;DHT22;10148;47.694;9.442;2023-03-26T16:27:43;6.00;99.90
19974;DHT22;10148;47.694;9.442;2023-03-26T16:30:13;6.10;99.90
19974;DHT22;10148;47.694;9.442;2023-03-26T16:32:44;6.20;99.90
19974;DHT22;10148;47.694;9.442;2023-03-26T16:42:52;6.40;99.90
19974;DHT22;10148;47.694;9.442;2023-03-26T16:50:41;6.40;99.90
19974;DHT22;10148;47.694;9.442;2023-03-26T16:53:32;6.40;99.90
19974;DHT22;10148;47.694;9.442;2023-03-26T16:58:55;6.30;99.90
19974;DHT22;10148;47.694;9.442;2023-03-26T17:03:59;6.30;99.90
19974;DHT22;10148;47.694;9.442;2023-03-26T17:12:49;6.10;99.90
19974;DHT22;10148;47.694;9.442;2023-03-26T17:15:47;5.90;99.90
19974;DHT22;10148;47.694;9.442;2023-03-26T17:21:12;5.90;99.90
19974;DHT22;10148;47.694;9.442;2023-03-26T17:26:24;6.30;99.90
19974;DHT22;10148;47.694;9.442;2023-03-26T17:47:30;5.70;99.90
19974;DHT22;10148;47.694;9.442;2023-03-26T17:50:02;5.70;99.90
19974;DHT22;10148;47.694;9.442;2023-03-26T17:55:31;5.70;99.90
19974;DHT22;10148;47.694;9.442;2023-03-26T17:58:04;5.60;99.90
19974;DHT22;10148;47.694;9.442;2023-03-26T18:00:34;5.70;99.90
19974;DHT22;10148;47.694;9.442;2023-03-26T18:03:04;5.60;99.90
19974;DHT22;10148;47.694;9.442;2023-03-26T18:05:32;5.60;99.90
19974;DHT22;10148;47.694;9.442;2023-03-26T18:08:30;5.60;99.90
19974;DHT22;10148;47.694;9.442;2023-03-26T18:16:56;5.60;99.90
19974;DHT22;10148;47.694;9.442;2023-03-26T18:19:23;5.60;99.90
19974;DHT22;10148;47.694;9.442;2023-03-26T18:21:56;5.60;99.90
19974;DHT22;10148;47.694;9.442;2023-03-26T18:27:06;5.60;99.90
19974;DHT22;10148;47.694;9.442;2023-03-26T18:29:35;5.60;99.90
19974;DHT22;10148;47.694;9.442;2023-03-26T18:34:45;5.60;99.90
19974;DHT22;10148;47.694;9.442;2023-03-26T18:37:29;5.60;99.90
19974;DHT22;10148;47.694;9.442;2023-03-26T18:40:09;5.60;99.90
19974;DHT22;10148;47.694;9.442;2023-03-26T18:42:40;5.60;99.90
19974;DHT22;10148;47.694;9.442;2023-03-26T18:48:04;5.60;99.90
19974;DHT22;10148;47.694;9.442;2023-03-26T18:50:37;5.60;99.90
19974;DHT22;10148;47.694;9.442;2023-03-26T18:53:18;5.60;99.90
19974;DHT22;10148;47.694;9.442;2023-03-26T18:55:46;5.50;99.90
19974;DHT22;10148;47.694;9.442;2023-03-26T18:58:28;5.60;99.90
19974;DHT22;10148;47.694;9.442;2023-03-26T19:01:03;5.60;99.90
19974;DHT22;10148;47.694;9.442;2023-03-26T19:03:34;5.60;99.90
19974;DHT22;10148;47.694;9.442;2023-03-26T19:06:02;5.60;99.90
19974;DHT22;10148;47.694;9.442;2023-03-26T19:08:30;5.60;99.90
19974;DHT22;10148;47.694;9.442;2023-03-26T19:10:57;5.60;99.90
19974;DHT22;10148;47.694;9.442;2023-03-26T19:13:26;5.60;99.90
19974;DHT22;10148;47.694;9.442;2023-03-26T19:15:53;5.60;99.90
19974;DHT22;10148;47.694;9.442;2023-03-26T19:18:25;5.60;99.90
19974;DHT22;10148;47.694;9.442;2023-03-26T19:20:59;5.60;99.90
19974;DHT22;10148;47.694;9.442;2023-03-26T19:23:32;5.60;99.90
19974;DHT22;10148;47.694;9.442;2023-03-26T19:26:00;5.60;99.90
19974;DHT22;10148;47.694;9.442;2023-03-26T19:28:33;5.70;99.90
19974;DHT22;10148;47.694;9.442;2023-03-26T19:33:36;5.70;99.90
19974;DHT22;10148;47.694;9.442;2023-03-26T19:36:19;5.70;99.90
19974;DHT22;10148;47.694;9.442;2023-03-26T19:41:39;5.80;99.90
19974;DHT22;10148;47.694;9.442;2023-03-26T19:44:20;5.70;99.90
19974;DHT22;10148;47.694;9.442;2023-03-26T19:46:47;5.70;99.90
19974;DHT22;10148;47.694;9.442;2023-03-26T19:49:28;5.70;99.90
19974;DHT22;10148;47.694;9.442;2023-03-26T19:52:03;5.70;99.90
19974;DHT22;10148;47.694;9.442;2023-03-26T19:54:29;5.70;99.90
19974;DHT22;10148;47.694;9.442;2023-03-26T19:56:55;5.70;99.90
19974;DHT22;10148;47.694;9.442;2023-03-26T19:59:21;5.70;99.90
19974;DHT22;10148;47.694;9.442;2023-03-26T20:01:46;5.70;99.90
19974;DHT22;10148;47.694;9.442;2023-03-26T20:04:12;5.70;99.90
19974;DHT22;10148;47.694;9.442;2023-03-26T20:06:37;5.70;99.90
19974;DHT22;10148;47.694;9.442;2023-03-26T20:09:07;5.80;99.90
19974;DHT22;10148;47.694;9.442;2023-03-26T20:11:35;5.70;99.90
19974;DHT22;10148;47.694;9.442;2023-03-26T20:14:14;5.70;99.90
19974;DHT22;10148;47.694;9.442;2023-03-26T20:16:40;5.80;99.90
19974;DHT22;10148;47.694;9.442;2023-03-26T20:19:06;5.70;99.90
19974;DHT22;10148;47.694;9.442;2023-03-26T20:21:33;5.70;99.90
19974;DHT22;10148;47.694;9.442;2023-03-26T20:24:09;5.70;99.90
19974;DHT22;10148;47.694;9.442;2023-03-26T20:26:35;5.70;99.90
19974;DHT22;10148;47.694;9.442;2023-03-26T20:29:00;5.70;99.90
19974;DHT22;10148;47.694;9.442;2023-03-26T20:31:26;5.80;99.90
19974;DHT22;10148;47.694;9.442;2023-03-26T20:33:52;5.70;99.90
19974;DHT22;10148;47.694;9.442;2023-03-26T20:36:18;5.80;99.90
19974;DHT22;10148;47.694;9.442;2023-03-26T20:38:45;5.70;99.90
19974;DHT22;10148;47.694;9.442;2023-03-26T20:41:21;5.70;99.90
19974;DHT22;10148;47.694;9.442;2023-03-26T20:43:50;5.70;99.90
19974;DHT22;10148;47.694;9.442;2023-03-26T20:46:21;5.70;99.90
19974;DHT22;10148;47.694;9.442;2023-03-26T20:48:47;5.70;99.90
19974;DHT22;10148;47.694;9.442;2023-03-26T20:51:14;5.70;99.90
19974;DHT22;10148;47.694;9.442;2023-03-26T20:53:40;5.80;99.90
19974;DHT22;10148;47.694;9.442;2023-03-26T20:56:19;5.70;99.90
19974;DHT22;10148;47.694;9.442;2023-03-26T20:58:46;5.80;99.90
19974;DHT22;10148;47.694;9.442;2023-03-26T21:01:14;5.70;99.90
19974;DHT22;10148;47.694;9.442;2023-03-26T21:03:42;5.70;99.90
19974;DHT22;10148;47.694;9.442;2023-03-26T21:06:11;5.70;99.90
19974;DHT22;10148;47.694;9.442;2023-03-26T21:08:41;5.70;99.90
19974;DHT22;10148;47.694;9.442;2023-03-26T21:14:16;5.70;99.90
19974;DHT22;10148;47.694;9.442;2023-03-26T21:16:43;5.70;99.90
19974;DHT22;10148;47.694;9.442;2023-03-26T21:19:09;5.70;99.90
19974;DHT22;10148;47.694;9.442;2023-03-26T21:29:42;5.60;99.90
19974;DHT22;10148;47.694;9.442;2023-03-26T21:32:09;5.60;99.90
19974;DHT22;10148;47.694;9.442;2023-03-26T21:34:36;5.60;99.90
19974;DHT22;10148;47.694;9.442;2023-03-26T21:37:03;5.60;99.90
19974;DHT22;10148;47.694;9.442;2023-03-26T21:39:28;5.50;99.90
19974;DHT22;10148;47.694;9.442;2023-03-26T21:41:54;5.60;99.90
19974;DHT22;10148;47.694;9.442;2023-03-26T21:44:20;5.60;99.90
19974;DHT22;10148;47.694;9.442;2023-03-26T21:46:47;5.50;99.90
19974;DHT22;10148;47.694;9.442;2023-03-26T21:49:14;5.60;99.90
19974;DHT22;10148;47.694;9.442;2023-03-26T21:51:41;5.50;99.90
19974;DHT22;10148;47.694;9.442;2023-03-26T21:54:20;5.50;99.90